• Join FlightAware (Why Join?)
  • Login
  • US Flag 
07:36PM EDT


 

Airport Tracker/Info


-or-


 

Live Flight TrackerFlight Track Log ✈ N229CN ✈ 16-Apr-2013 ✈ KBED - KBTV

Flight Track Log - Related Links

Times and Time Zones

All times are in EDT time to prevent confusion due to time zone crossing. See the N229CN flight status page for this flight to view local times or setup timezone preferences in your user account.

Time Position Orientation Groundspeed Altitude Reporting Facility
EDT Latitude Longitude Course Direction KTS MPH feet Rate Location/Type
02:03PM 42.4667 -71.3000 246° West 193 222 1,100  Level KA90
02:04PM 42.4500 -71.3500 246° West 194 223 2,100 2,400 Climbing KA90
02:05PM 42.5000 -71.3500 360° North 232 267 5,200 3,540 Climbing KA90
02:07PM 42.6781 -71.3047 11° North 275 316 14,200 3,480 Climbing Boston Center
02:08PM 42.7675 -71.2833 10° North 289 333 17,400 2,820 Climbing Boston Center
02:09PM 42.8389 -71.3358 332° Northwest 284 327 19,900 1,260 Climbing Boston Center
02:10PM 42.9022 -71.4197 316° Northwest 291 335 20,000  Climbing Boston Center
02:11PM 42.9697 -71.4922 322° Northwest 325 374 20,000  Level Boston Center
02:12PM 43.0453 -71.5764 321° Northwest 330 380 20,000  Level Boston Center
02:13PM 43.1147 -71.6550 320° Northwest 330 380 20,000  Level Boston Center
02:14PM 43.1839 -71.7367 319° Northwest 330 380 20,000  Level Boston Center
02:15PM 43.2553 -71.8186 320° Northwest 330 380 20,000  Level Boston Center
02:16PM 43.3244 -71.8978 320° Northwest 330 380 20,000  Level Boston Center
02:17PM 43.3936 -71.9800 319° Northwest 330 380 20,000  Level Boston Center
02:18PM 43.4606 -72.0597 319° Northwest 330 380 20,000  Level Boston Center
02:19PM 43.5317 -72.1394 321° Northwest 330 380 20,000  Level Boston Center
02:20PM 43.6006 -72.2222 319° Northwest 330 380 20,000 -240 Level Boston Center
02:21PM 43.6694 -72.3022 320° Northwest 330 380 19,600 -1,020 Descending Boston Center
02:22PM 43.7361 -72.3825 319° Northwest 330 380 18,000 -1,500 Descending Boston Center
02:23PM 43.7989 -72.4603 318° Northwest 319 367 16,700 -1,380 Descending Boston Center
02:24PM 43.8611 -72.5350 319° Northwest 309 356 15,300 -1,560 Descending Boston Center
02:25PM 43.9236 -72.6072 320° Northwest 303 349 13,700 -1,560 Descending Boston Center
02:26PM 43.9756 -72.6739 317° Northwest 284 327 12,200 -1,320 Descending Boston Center
02:27PM 44.0339 -72.7433 319° Northwest 284 327 11,100 -660 Descending Boston Center
02:28PM 44.0919 -72.8042 323° Northwest 275 316 10,900 -960 Descending Boston Center
02:29PM 44.1586 -72.8481 335° Northwest 260 299 9,300 -1,620 Descending Boston Center
02:30PM 44.2189 -72.8861 336° Northwest 250 288 7,800 -1,440 Descending Boston Center
02:31PM 44.2811 -72.9069 347° North 235 270 6,400 -900 Descending Boston Center
02:32PM 44.3292 -72.9161 352° North 230 265 6,000 -1,080 Descending Boston Center
02:33PM 44.3978 -72.9486 341° North 204 235 4,300 -1,500 Descending Boston Center
02:34PM 44.4433 -73.0069 318° Northwest 211 243 3,100 -900 Descending Boston Center
02:35PM 44.4847 -73.0744 311° West 218 251 2,600 -300 Descending Boston Center
02:36PM 44.5197 -73.1358 309° West 218 251 2,600 -240 Level Boston Center
02:37PM 44.5486 -73.1828 311° West 203 234 2,200 -480 Descending Boston Center
02:38PM 44.5275 -73.2089 221° Southwest 94 108 1,600 -540 Descending Boston Center
02:40PM 44.4667 -73.1500 170° South  Level FlightAware Approximate
02:47PM 44.4719 -73.1533 170° South  Level Estimated
02:48PM 44.4667 -73.1500 170° South  Level FlightAware Approximate
02:49PM 44.4719 -73.1533 170° South  Level Estimated
02:50PM 44.4667 -73.1500 170° South  Level FlightAware Approximate